sensor_id;sensor_type;location;lat;lon;timestamp;pressure;altitude;pressure_sealevel;temperature;humidity
47712;BME280;57457;51.634;5.886;2023-04-24T00:16:04;99700;;;10.4;86.4
47712;BME280;57457;51.634;5.886;2023-04-24T00:31:20;99700;;;10.4;86.6
47712;BME280;57457;51.634;5.886;2023-04-24T00:43:56;99700;;;10.4;86.3
47712;BME280;57457;51.634;5.886;2023-04-24T00:57:27;99700;;;10.4;86.5
47712;BME280;57457;51.634;5.886;2023-04-24T01:12:30;99700;;;10.4;86.7
47712;BME280;57457;51.634;5.886;2023-04-24T01:26:44;99700;;;10.3;87.5
47712;BME280;57457;51.634;5.886;2023-04-24T01:40:11;99700;;;10.2;87.8
47712;BME280;57457;51.634;5.886;2023-04-24T01:53:27;99700;;;10.0;87.9
47712;BME280;57457;51.634;5.886;2023-04-24T02:06:00;99700;;;9.9;88.4
47712;BME280;57457;51.634;5.886;2023-04-24T02:19:01;99700;;;9.8;88.8
47712;BME280;57457;51.634;5.886;2023-04-24T02:32:16;99700;;;9.7;88.9
47712;BME280;57457;51.634;5.886;2023-04-24T02:45:18;99700;;;9.6;88.9
47712;BME280;57457;51.634;5.886;2023-04-24T02:58:20;99700;;;9.6;88.8
47712;BME280;57457;51.634;5.886;2023-04-24T03:13:01;99700;;;9.5;88.8
47712;BME280;57457;51.634;5.886;2023-04-24T03:27:32;99700;;;9.5;88.8
47712;BME280;57457;51.634;5.886;2023-04-24T03:40:36;99700;;;9.4;88.8
47712;BME280;57457;51.634;5.886;2023-04-24T03:53:46;99700;;;9.4;88.7
47712;BME280;57457;51.634;5.886;2023-04-24T04:26:47;99700;;;9.4;87.8
47712;BME280;57457;51.634;5.886;2023-04-24T04:41:30;99700;;;9.5;87.6
47712;BME280;57457;51.634;5.886;2023-04-24T04:56:17;99700;;;9.4;87.6
47712;BME280;57457;51.634;5.886;2023-04-24T05:10:33;99700;;;9.4;87.8
47712;BME280;57457;51.634;5.886;2023-04-24T05:24:28;99700;;;9.3;88.2
47712;BME280;57457;51.634;5.886;2023-04-24T05:39:48;99700;;;9.3;88.6
47712;BME280;57457;51.634;5.886;2023-04-24T05:54:51;99700;;;9.3;88.7
47712;BME280;57457;51.634;5.886;2023-04-24T06:09:03;99800;;;9.3;88.7
47712;BME280;57457;51.634;5.886;2023-04-24T06:23:10;99800;;;9.2;88.9
47712;BME280;57457;51.634;5.886;2023-04-24T06:38:33;99800;;;9.2;88.9
47712;BME280;57457;51.634;5.886;2023-04-24T06:57:26;99800;;;9.2;88.2
47712;BME280;57457;51.634;5.886;2023-04-24T07:16:18;99800;;;9.2;87.8
47712;BME280;57457;51.634;5.886;2023-04-24T07:35:34;99900;;;9.3;88.2
47712;BME280;57457;51.634;5.886;2023-04-24T07:53:26;99900;;;9.3;88.9
47712;BME280;57457;51.634;5.886;2023-04-24T08:20:50;100000;;;9.3;88.6
47712;BME280;57457;51.634;5.886;2023-04-24T08:35:25;100000;;;9.2;88.6
47712;BME280;57457;51.634;5.886;2023-04-24T08:49:34;100100;;;9.2;88.7
47712;BME280;57457;51.634;5.886;2023-04-24T09:03:47;100100;;;9.2;88.2
47712;BME280;57457;51.634;5.886;2023-04-24T09:18:06;100100;;;9.1;88.1
47712;BME280;57457;51.634;5.886;2023-04-24T09:32:09;100200;;;9.1;87.8
47712;BME280;57457;51.634;5.886;2023-04-24T09:47:05;100200;;;9.2;86.9
47712;BME280;57457;51.634;5.886;2023-04-24T10:02:38;100200;;;9.3;86.0
47712;BME280;57457;51.634;5.886;2023-04-24T10:19:06;100300;;;9.7;82.9
47712;BME280;57457;51.634;5.886;2023-04-24T10:36:38;100300;;;10.0;83.3
47712;BME280;57457;51.634;5.886;2023-04-24T10:51:47;100300;;;9.9;83.0
47712;BME280;57457;51.634;5.886;2023-04-24T11:06:37;100300;;;10.0;82.4
47712;BME280;57457;51.634;5.886;2023-04-24T11:26:09;100400;;;10.0;82.7
47712;BME280;57457;51.634;5.886;2023-04-24T11:46:02;100400;;;10.2;80.7
47712;BME280;57457;51.634;5.886;2023-04-24T12:02:47;100400;;;10.5;79.7
47712;BME280;57457;51.634;5.886;2023-04-24T12:16:51;100400;;;10.5;80.7
47712;BME280;57457;51.634;5.886;2023-04-24T12:29:36;100400;;;10.4;80.9
47712;BME280;57457;51.634;5.886;2023-04-24T12:43:13;100500;;;10.3;80.1
47712;BME280;57457;51.634;5.886;2023-04-24T12:57:13;100500;;;10.7;77.4
47712;BME280;57457;51.634;5.886;2023-04-24T13:27:04;100500;;;10.9;83.7
47712;BME280;57457;51.634;5.886;2023-04-24T13:41:06;100500;;;10.5;83.2
47712;BME280;57457;51.634;5.886;2023-04-24T13:55:28;100500;;;10.4;81.2
47712;BME280;57457;51.634;5.886;2023-04-24T14:08:32;100500;;;11.0;76.8
47712;BME280;57457;51.634;5.886;2023-04-24T14:22:20;100500;;;11.1;81.8
47712;BME280;57457;51.634;5.886;2023-04-24T14:37:16;100500;;;10.9;81.6
47712;BME280;57457;51.634;5.886;2023-04-24T14:53:36;100500;;;10.9;80.9
47712;BME280;57457;51.634;5.886;2023-04-24T15:12:04;100600;;;10.9;79.6
47712;BME280;57457;51.634;5.886;2023-04-24T15:28:26;100600;;;11.2;82.5
47712;BME280;57457;51.634;5.886;2023-04-24T15:42:50;100600;;;10.9;82.9
47712;BME280;57457;51.634;5.886;2023-04-24T15:57:44;100600;;;10.3;82.9
47712;BME280;57457;51.634;5.886;2023-04-24T16:25:11;100600;;;10.1;79.1
47712;BME280;57457;51.634;5.886;2023-04-24T16:38:23;100600;;;10.7;75.9
47712;BME280;57457;51.634;5.886;2023-04-24T16:52:41;100600;;;11.2;72.7
47712;BME280;57457;51.634;5.886;2023-04-24T17:28:40;100600;;;11.2;77.1
47712;BME280;57457;51.634;5.886;2023-04-24T18:08:49;100600;;;10.7;81.0
47712;BME280;57457;51.634;5.886;2023-04-24T18:34:15;100600;;;10.4;80.0
47712;BME280;57457;51.634;5.886;2023-04-24T18:58:35;100700;;;10.0;81.7
47712;BME280;57457;51.634;5.886;2023-04-24T19:23:14;100700;;;9.4;83.0
47712;BME280;57457;51.634;5.886;2023-04-24T19:58:24;100700;;;8.6;82.8
47712;BME280;57457;51.634;5.886;2023-04-24T20:32:12;100700;;;8.0;84.4
47712;BME280;57457;51.634;5.886;2023-04-24T21:04:51;100700;;;7.3;84.2
47712;BME280;57457;51.634;5.886;2023-04-24T21:35:41;100700;;;6.9;85.2
47712;BME280;57457;51.634;5.886;2023-04-24T22:18:40;100700;;;6.0;86.1
47712;BME280;57457;51.634;5.886;2023-04-24T22:58:42;100700;;;5.7;86.7
47712;BME280;57457;51.634;5.886;2023-04-24T23:38:11;100700;;;5.1;87.3
